Time;durP1;ratioP1;P1;durP2;ratioP2;P2;SDS_P1;SDS_P2;PMS_P1;PMS_P2;Temp;Humidity;BMP_temperature;BMP_pressure;BME280_temperature;BME280_humidity;BME280_pressure;Samples;Min_cycle;Max_cycle;Signal;HPM_P1;HPM_P2
2022/03/19 00:00:51;;;;;;;1.17;0.60;;;;;;;;;;4983786;28;20038;-83
2022/03/19 00:03:18;;;;;;;0.70;0.32;;;;;;;;;;4981926;28;20663;-83
2022/03/19 00:05:44;;;;;;;0.10;0.10;;;;;;;;;;4984254;28;20498;-84
2022/03/19 00:08:11;;;;;;;0.10;0.10;;;;;;;;;;4983912;28;20026;-84
2022/03/19 00:10:37;;;;;;;0.10;0.10;;;;;;;;;;4982508;28;20285;-84
2022/03/19 00:13:03;;;;;;;0.30;0.30;;;;;;;;;;4982724;28;20026;-84
2022/03/19 00:15:30;;;;;;;0.20;0.20;;;;;;;;;;4978789;28;20046;-88
2022/03/19 00:17:57;;;;;;;0.10;0.10;;;;;;;;;;4983122;28;20031;-87
2022/03/19 00:20:23;;;;;;;0.43;0.40;;;;;;;;;;4983065;28;20787;-88
2022/03/19 00:22:50;;;;;;;0.10;0.10;;;;;;;;;;4982416;28;20034;-88
2022/03/19 00:25:16;;;;;;;0.00;0.00;;;;;;;;;;4981167;28;20133;-87
2022/03/19 00:27:42;;;;;;;0.20;0.20;;;;;;;;;;4981538;28;20034;-88
2022/03/19 00:30:09;;;;;;;0.10;0.10;;;;;;;;;;4982237;28;20041;-88
2022/03/19 00:32:35;;;;;;;0.38;0.38;;;;;;;;;;4983717;28;20064;-85
2022/03/19 00:35:01;;;;;;;0.28;0.28;;;;;;;;;;4980661;28;20034;-85
2022/03/19 00:37:27;;;;;;;0.80;0.80;;;;;;;;;;4979900;28;20062;-85
2022/03/19 00:39:53;;;;;;;0.10;0.10;;;;;;;;;;4975913;28;20453;-85
2022/03/19 00:42:20;;;;;;;0.20;0.20;;;;;;;;;;4981710;28;20536;-84
2022/03/19 00:44:47;;;;;;;17.67;0.90;;;;;;;;;;4982544;28;20409;-85
2022/03/19 00:47:13;;;;;;;;;;;;;;;;;;4983733;28;20628;-84
2022/03/19 00:49:39;;;;;;;0.10;0.10;;;;;;;;;;4981052;28;19957;-85
2022/03/19 00:52:05;;;;;;;0.30;0.30;;;;;;;;;;4980193;28;20039;-84
2022/03/19 00:54:31;;;;;;;0.17;0.17;;;;;;;;;;4979693;28;20811;-84
2022/03/19 00:56:57;;;;;;;0.57;0.57;;;;;;;;;;4982435;28;20266;-84
2022/03/19 00:59:23;;;;;;;0.30;0.30;;;;;;;;;;4983612;28;20026;-84
2022/03/19 01:01:49;;;;;;;1.23;0.47;;;;;;;;;;4980473;28;20074;-84
2022/03/19 01:04:15;;;;;;;0.00;0.00;;;;;;;;;;4981392;28;20022;-84
2022/03/19 01:06:41;;;;;;;0.10;0.10;;;;;;;;;;4980866;28;20042;-83
2022/03/19 01:09:07;;;;;;;0.10;0.10;;;;;;;;;;4977551;28;20478;-83
2022/03/19 01:11:33;;;;;;;0.15;0.15;;;;;;;;;;4983129;28;20034;-84
2022/03/19 01:13:59;;;;;;;0.10;0.10;;;;;;;;;;4980192;28;20498;-83
2022/03/19 01:16:26;;;;;;;0.63;0.20;;;;;;;;;;4980490;28;20041;-83
2022/03/19 01:18:52;;;;;;;0.40;0.40;;;;;;;;;;4982393;28;20101;-83
2022/03/19 01:21:18;;;;;;;0.63;0.63;;;;;;;;;;4982797;28;20083;-84
2022/03/19 01:23:44;;;;;;;0.68;0.47;;;;;;;;;;4983837;28;20065;-83
2022/03/19 01:26:10;;;;;;;0.55;0.52;;;;;;;;;;4980453;28;20121;-84
2022/03/19 01:28:37;;;;;;;0.20;0.20;;;;;;;;;;4976173;28;20041;-84
2022/03/19 01:31:03;;;;;;;0.13;0.13;;;;;;;;;;4979468;28;20041;-84
2022/03/19 01:33:29;;;;;;;0.10;0.10;;;;;;;;;;4980722;28;20134;-84
2022/03/19 01:35:55;;;;;;;2.50;1.17;;;;;;;;;;4981532;28;20068;-84
2022/03/19 01:38:22;;;;;;;0.82;0.77;;;;;;;;;;4983478;28;20137;-84
2022/03/19 01:40:48;;;;;;;0.00;0.00;;;;;;;;;;4978551;28;20038;-84
2022/03/19 01:43:14;;;;;;;0.00;0.00;;;;;;;;;;4979653;28;21216;-84
2022/03/19 01:45:40;;;;;;;1.75;1.08;;;;;;;;;;4974290;28;20652;-84
2022/03/19 01:48:06;;;;;;;5.17;3.10;;;;;;;;;;4980638;28;20104;-85
2022/03/19 01:50:32;;;;;;;0.10;0.10;;;;;;;;;;4981238;28;20042;-84
2022/03/19 01:52:58;;;;;;;0.63;0.63;;;;;;;;;;4979643;28;20030;-84
2022/03/19 01:55:25;;;;;;;0.17;0.17;;;;;;;;;;4978984;28;20082;-84
2022/03/19 01:57:53;;;;;;;0.65;0.50;;;;;;;;;;4980411;28;20054;-85
2022/03/19 02:00:21;;;;;;;0.15;0.15;;;;;;;;;;4981056;28;20034;-84
2022/03/19 02:02:48;;;;;;;0.10;0.10;;;;;;;;;;4981793;28;20038;-84
2022/03/19 02:05:15;;;;;;;0.68;0.68;;;;;;;;;;4980053;28;20121;-86
2022/03/19 02:07:45;;;;;;;0.10;0.10;;;;;;;;;;4981580;28;20042;-86
2022/03/19 02:10:11;;;;;;;1.75;1.17;;;;;;;;;;4979991;28;20081;-84
2022/03/19 02:12:39;;;;;;;0.30;0.30;;;;;;;;;;4981264;28;20030;-86
2022/03/19 02:15:05;;;;;;;0.10;0.10;;;;;;;;;;4981120;28;20035;-84
2022/03/19 02:17:32;;;;;;;0.22;0.22;;;;;;;;;;4982654;28;20040;-86
2022/03/19 02:19:58;;;;;;;0.30;0.30;;;;;;;;;;4977373;28;20045;-86
2022/03/19 02:22:26;;;;;;;0.10;0.10;;;;;;;;;;4979599;28;20117;-87
2022/03/19 02:27:37;;;;;;;0.10;0.10;;;;;;;;;;4979848;28;20135;-83
2022/03/19 02:30:04;;;;;;;0.15;0.15;;;;;;;;;;4979682;28;20037;-86
2022/03/19 02:32:31;;;;;;;0.28;0.28;;;;;;;;;;4981176;28;20026;-87
2022/03/19 02:34:57;;;;;;;0.17;0.17;;;;;;;;;;4979868;28;20034;-86
2022/03/19 02:37:23;;;;;;;1.20;0.33;;;;;;;;;;4981880;28;20045;-86
2022/03/19 02:39:49;;;;;;;0.20;0.20;;;;;;;;;;4983352;28;20111;-85
2022/03/19 02:42:19;;;;;;;0.00;0.00;;;;;;;;;;4983018;28;20035;-86
2022/03/19 02:44:45;;;;;;;0.10;0.10;;;;;;;;;;4980366;28;20065;-85
2022/03/19 02:47:11;;;;;;;0.10;0.10;;;;;;;;;;4984359;28;20041;-85
2022/03/19 02:49:38;;;;;;;0.67;0.50;;;;;;;;;;4983516;28;20622;-86
2022/03/19 02:52:04;;;;;;;0.20;0.20;;;;;;;;;;4981306;28;20581;-86
2022/03/19 02:54:31;;;;;;;0.52;0.45;;;;;;;;;;4982717;28;20278;-87
2022/03/19 02:56:57;;;;;;;;;;;;;;;;;;4983716;28;20026;-87
2022/03/19 02:59:24;;;;;;;0.50;0.50;;;;;;;;;;4984540;28;19920;-87
2022/03/19 03:01:52;;;;;;;2.08;0.55;;;;;;;;;;4980592;28;20042;-89
2022/03/19 03:04:18;;;;;;;0.20;0.20;;;;;;;;;;4980413;28;20085;-87
2022/03/19 03:06:45;;;;;;;0.10;0.10;;;;;;;;;;4982857;28;20085;-88
2022/03/19 03:09:12;;;;;;;0.20;0.20;;;;;;;;;;4982821;28;20050;-87
2022/03/19 03:11:38;;;;;;;0.28;0.28;;;;;;;;;;4981514;28;20045;-87
2022/03/19 03:14:05;;;;;;;0.00;0.00;;;;;;;;;;4984871;28;20034;-88
2022/03/19 03:16:31;;;;;;;0.30;0.30;;;;;;;;;;4981964;28;20494;-87
2022/03/19 03:18:59;;;;;;;0.20;0.20;;;;;;;;;;4982757;28;20097;-87
2022/03/19 03:21:27;;;;;;;0.17;0.17;;;;;;;;;;4982396;28;20047;-86
2022/03/19 03:23:53;;;;;;;0.77;0.77;;;;;;;;;;4982530;28;20045;-87
2022/03/19 03:26:19;;;;;;;0.00;0.00;;;;;;;;;;4983473;28;20093;-84
2022/03/19 03:28:46;;;;;;;0.10;0.10;;;;;;;;;;4982863;28;20042;-85
2022/03/19 03:31:12;;;;;;;0.23;0.23;;;;;;;;;;4982009;28;20042;-84
2022/03/19 03:33:38;;;;;;;0.32;0.32;;;;;;;;;;4981753;28;20498;-84
2022/03/19 03:36:04;;;;;;;0.63;0.63;;;;;;;;;;4976412;28;20033;-85
2022/03/19 03:38:30;;;;;;;1.55;0.25;;;;;;;;;;4985166;28;20494;-84
2022/03/19 03:40:56;;;;;;;0.38;0.38;;;;;;;;;;4984177;28;20057;-83
2022/03/19 03:43:22;;;;;;;0.47;0.40;;;;;;;;;;4982385;28;20031;-85
2022/03/19 03:45:48;;;;;;;0.20;0.20;;;;;;;;;;4991495;28;20041;-85
2022/03/19 03:48:15;;;;;;;0.60;0.55;;;;;;;;;;4983009;28;20035;-85
2022/03/19 03:50:41;;;;;;;6.73;0.37;;;;;;;;;;4984811;28;20069;-84
2022/03/19 03:53:08;;;;;;;0.68;0.68;;;;;;;;;;4986452;28;20274;-85
2022/03/19 03:55:35;;;;;;;0.10;0.10;;;;;;;;;;4985332;28;20501;-83
2022/03/19 03:58:01;;;;;;;;;;;;;;;;;;4982721;28;20088;-88
2022/03/19 04:00:27;;;;;;;0.10;0.10;;;;;;;;;;4981817;28;20297;-88
2022/03/19 04:02:53;;;;;;;0.10;0.10;;;;;;;;;;4983562;28;20706;-87
2022/03/19 04:05:20;;;;;;;0.20;0.20;;;;;;;;;;4983178;28;20050;-84
2022/03/19 04:07:46;;;;;;;0.47;0.47;;;;;;;;;;4981902;28;20040;-84
2022/03/19 04:10:12;;;;;;;0.20;0.20;;;;;;;;;;4981310;28;20137;-83
2022/03/19 04:12:38;;;;;;;6.35;0.57;;;;;;;;;;4980578;28;20041;-83
2022/03/19 04:15:05;;;;;;;0.45;0.45;;;;;;;;;;4982256;28;20460;-83
2022/03/19 04:17:31;;;;;;;0.82;0.80;;;;;;;;;;4983945;28;20068;-82
2022/03/19 04:19:57;;;;;;;1.75;1.08;;;;;;;;;;4983243;28;20532;-83
2022/03/19 04:22:23;;;;;;;0.32;0.32;;;;;;;;;;4983304;28;20034;-83
2022/03/19 04:24:50;;;;;;;1.00;0.50;;;;;;;;;;4983025;28;20030;-83
2022/03/19 04:27:16;;;;;;;0.55;0.55;;;;;;;;;;4982156;28;20111;-84
2022/03/19 04:29:42;;;;;;;0.20;0.20;;;;;;;;;;4983512;28;20568;-83
2022/03/19 04:32:08;;;;;;;0.20;0.20;;;;;;;;;;4983194;28;20506;-84
2022/03/19 04:34:34;;;;;;;0.20;0.20;;;;;;;;;;4981738;28;20043;-85
2022/03/19 04:37:01;;;;;;;0.52;0.52;;;;;;;;;;4980992;28;20113;-86
2022/03/19 04:39:27;;;;;;;0.77;0.77;;;;;;;;;;4980037;28;20528;-87
2022/03/19 04:41:53;;;;;;;0.43;0.43;;;;;;;;;;4980225;28;20757;-87
2022/03/19 04:44:19;;;;;;;0.88;0.88;;;;;;;;;;4981833;28;20065;-87
2022/03/19 04:46:45;;;;;;;0.50;0.50;;;;;;;;;;4982044;28;20069;-86
2022/03/19 04:49:11;;;;;;;0.20;0.20;;;;;;;;;;4982466;28;20584;-85
2022/03/19 04:51:38;;;;;;;0.30;0.30;;;;;;;;;;4977307;28;20132;-86
2022/03/19 04:54:05;;;;;;;1.60;1.02;;;;;;;;;;4980675;28;20031;-85
2022/03/19 04:56:31;;;;;;;0.10;0.10;;;;;;;;;;4983181;28;20062;-86
2022/03/19 04:58:59;;;;;;;0.57;0.57;;;;;;;;;;4979959;28;20030;-86
2022/03/19 05:01:25;;;;;;;1.35;1.10;;;;;;;;;;4980425;28;20042;-86
2022/03/19 05:03:51;;;;;;;0.43;0.32;;;;;;;;;;4972580;28;20026;-87
2022/03/19 05:06:18;;;;;;;2.58;0.60;;;;;;;;;;4980576;28;20041;-85
2022/03/19 05:08:44;;;;;;;0.32;0.32;;;;;;;;;;4981394;28;20030;-84
2022/03/19 05:11:13;;;;;;;0.68;0.68;;;;;;;;;;4980720;28;20131;-83
2022/03/19 05:13:48;;;;;;;0.10;0.10;;;;;;;;;;4979779;28;20030;-83
2022/03/19 05:16:15;;;;;;;0.22;0.22;;;;;;;;;;4979885;28;20041;-84
2022/03/19 05:18:41;;;;;;;0.10;0.10;;;;;;;;;;4978260;28;20133;-84
2022/03/19 05:21:08;;;;;;;0.15;0.15;;;;;;;;;;4978998;28;20042;-83
2022/03/19 05:23:37;;;;;;;0.20;0.20;;;;;;;;;;4983181;28;20030;-84
2022/03/19 05:26:03;;;;;;;1.05;0.70;;;;;;;;;;4979927;28;20288;-83
2022/03/19 05:28:29;;;;;;;0.83;0.83;;;;;;;;;;4979485;28;20022;-84
2022/03/19 05:30:57;;;;;;;0.45;0.45;;;;;;;;;;4980826;28;20030;-86
2022/03/19 05:36:08;;;;;;;0.93;0.68;;;;;;;;;;4983261;28;20088;-90
2022/03/19 05:38:35;;;;;;;0.20;0.20;;;;;;;;;;4981385;28;20092;-87
2022/03/19 05:41:01;;;;;;;0.10;0.10;;;;;;;;;;4979306;28;20045;-87
2022/03/19 05:43:27;;;;;;;0.13;0.13;;;;;;;;;;4979299;28;20462;-85
2022/03/19 05:45:53;;;;;;;0.10;0.10;;;;;;;;;;4979824;28;20030;-85
2022/03/19 05:48:19;;;;;;;0.20;0.20;;;;;;;;;;4979521;28;20660;-89
2022/03/19 05:50:46;;;;;;;0.43;0.43;;;;;;;;;;4985335;28;20037;-93
2022/03/19 05:53:12;;;;;;;0.22;0.22;;;;;;;;;;4989007;28;20018;-94
2022/03/19 05:55:38;;;;;;;0.00;0.00;;;;;;;;;;4989970;28;20497;-94
2022/03/19 05:58:04;;;;;;;0.27;0.27;;;;;;;;;;4986916;28;20433;-93
2022/03/19 06:00:30;;;;;;;0.10;0.10;;;;;;;;;;4983966;28;20533;-92
2022/03/19 06:02:56;;;;;;;1.55;0.60;;;;;;;;;;4985450;28;20890;-94
2022/03/19 06:05:22;;;;;;;0.52;0.52;;;;;;;;;;4988842;28;20026;-94
2022/03/19 06:07:48;;;;;;;0.45;0.45;;;;;;;;;;4985020;28;20034;-94
2022/03/19 06:10:15;;;;;;;0.00;0.00;;;;;;;;;;4988695;28;20045;-92
2022/03/19 06:12:43;;;;;;;0.17;0.17;;;;;;;;;;4988744;28;20392;-93
2022/03/19 06:15:09;;;;;;;0.20;0.20;;;;;;;;;;4993718;28;20030;-93
2022/03/19 06:17:35;;;;;;;0.22;0.22;;;;;;;;;;4992952;28;20064;-95
2022/03/19 06:20:01;;;;;;;1.03;0.33;;;;;;;;;;4998727;28;20034;-90
2022/03/19 06:22:28;;;;;;;0.30;0.30;;;;;;;;;;4981762;28;20034;-94
2022/03/19 06:24:54;;;;;;;0.20;0.20;;;;;;;;;;4989449;28;20031;-92
2022/03/19 06:27:20;;;;;;;0.30;0.30;;;;;;;;;;4990764;28;20324;-84
2022/03/19 06:29:46;;;;;;;0.40;0.40;;;;;;;;;;4984589;28;20034;-87
2022/03/19 06:32:12;;;;;;;0.52;0.52;;;;;;;;;;4987936;28;20030;-88
2022/03/19 06:34:38;;;;;;;0.20;0.20;;;;;;;;;;4983328;28;20425;-85
2022/03/19 06:37:19;;;;;;;0.60;0.60;;;;;;;;;;4981518;28;20508;-83
2022/03/19 06:39:46;;;;;;;0.32;0.22;;;;;;;;;;4978718;28;20109;-82
2022/03/19 06:42:12;;;;;;;0.30;0.30;;;;;;;;;;4980158;28;20064;-81
2022/03/19 06:44:38;;;;;;;0.45;0.45;;;;;;;;;;4982122;28;20458;-86
2022/03/19 06:47:23;;;;;;;0.90;0.90;;;;;;;;;;4983942;28;20088;-83
2022/03/19 06:49:50;;;;;;;0.38;0.38;;;;;;;;;;4982825;28;20030;-84
2022/03/19 06:52:16;;;;;;;7.75;0.68;;;;;;;;;;4980595;28;20532;-85
2022/03/19 06:54:42;;;;;;;3.80;2.17;;;;;;;;;;4982455;28;20072;-90
2022/03/19 06:57:08;;;;;;;8.87;2.93;;;;;;;;;;4982252;28;20113;-85
2022/03/19 06:59:34;;;;;;;0.47;0.47;;;;;;;;;;4981242;28;20034;-88
2022/03/19 07:02:00;;;;;;;0.73;0.73;;;;;;;;;;4984109;28;20046;-88
2022/03/19 07:04:26;;;;;;;1.83;1.20;;;;;;;;;;4981887;28;20030;-87
2022/03/19 07:06:52;;;;;;;1.67;0.53;;;;;;;;;;4982068;28;20780;-89
2022/03/19 07:09:19;;;;;;;2.30;1.30;;;;;;;;;;4980596;28;20042;-89
2022/03/19 07:11:45;;;;;;;0.33;0.33;;;;;;;;;;4980456;28;20206;-88
2022/03/19 07:14:11;;;;;;;0.20;0.20;;;;;;;;;;4982851;28;20042;-88
2022/03/19 07:16:37;;;;;;;1.20;0.93;;;;;;;;;;4978990;28;20053;-83
2022/03/19 07:19:04;;;;;;;26.70;1.27;;;;;;;;;;4981454;28;20038;-86
2022/03/19 07:21:30;;;;;;;1.20;0.95;;;;;;;;;;4983155;28;20034;-84
2022/03/19 07:23:56;;;;;;;0.53;0.47;;;;;;;;;;4980264;28;20039;-85
2022/03/19 07:26:22;;;;;;;1.63;1.20;;;;;;;;;;4983516;28;20030;-87
2022/03/19 07:28:48;;;;;;;1.92;1.65;;;;;;;;;;4979685;28;20031;-90
2022/03/19 07:31:15;;;;;;;2.27;1.87;;;;;;;;;;4982924;28;20062;-87
2022/03/19 07:33:41;;;;;;;1.38;1.27;;;;;;;;;;4977881;28;20026;-83
2022/03/19 07:36:07;;;;;;;0.70;0.70;;;;;;;;;;4981693;28;20052;-84
2022/03/19 07:38:33;;;;;;;3.13;1.42;;;;;;;;;;4983525;28;20085;-85
2022/03/19 07:43:45;;;;;;;1.50;1.00;;;;;;;;;;4984529;28;20045;-87
2022/03/19 07:46:11;;;;;;;0.65;0.52;;;;;;;;;;4982420;28;20588;-81
2022/03/19 07:48:37;;;;;;;1.25;1.15;;;;;;;;;;4983097;28;20061;-87
2022/03/19 07:51:03;;;;;;;0.65;0.65;;;;;;;;;;4978988;28;20046;-87
2022/03/19 07:53:29;;;;;;;0.53;0.47;;;;;;;;;;4981057;28;20038;-87
2022/03/19 07:55:55;;;;;;;2.33;2.05;;;;;;;;;;4980640;28;20530;-88
2022/03/19 07:58:22;;;;;;;1.08;0.95;;;;;;;;;;4981682;28;20040;-89
2022/03/19 08:00:48;;;;;;;0.30;0.30;;;;;;;;;;4984094;28;20129;-89
2022/03/19 08:03:14;;;;;;;0.28;0.25;;;;;;;;;;4984764;28;20120;-90
2022/03/19 08:05:43;;;;;;;1.07;1.00;;;;;;;;;;4983102;28;20038;-91
2022/03/19 08:08:11;;;;;;;2.63;0.40;;;;;;;;;;4984565;28;20300;-87
2022/03/19 08:10:37;;;;;;;0.63;0.63;;;;;;;;;;4982738;28;20057;-90
2022/03/19 08:13:05;;;;;;;0.43;0.43;;;;;;;;;;4983454;28;21774;-89
2022/03/19 08:15:31;;;;;;;0.57;0.57;;;;;;;;;;4981902;28;20034;-90
2022/03/19 08:17:58;;;;;;;1.15;0.68;;;;;;;;;;4982136;28;20145;-90
2022/03/19 08:20:25;;;;;;;;;;;;;;;;;;4983637;28;20038;-90
2022/03/19 08:22:51;;;;;;;0.80;0.73;;;;;;;;;;4979903;28;19913;-87
2022/03/19 08:25:17;;;;;;;0.20;0.20;;;;;;;;;;4983798;28;20025;-87
2022/03/19 08:27:43;;;;;;;0.77;0.63;;;;;;;;;;4981665;28;20125;-86
2022/03/19 08:30:09;;;;;;;0.25;0.25;;;;;;;;;;4984072;28;20081;-87
2022/03/19 08:32:35;;;;;;;0.47;0.47;;;;;;;;;;4985492;28;20523;-85
2022/03/19 08:35:01;;;;;;;0.30;0.30;;;;;;;;;;4984497;28;20038;-86
2022/03/19 08:37:28;;;;;;;0.93;0.77;;;;;;;;;;4983671;28;20065;-86
2022/03/19 08:42:39;;;;;;;1.93;1.77;;;;;;;;;;4984577;28;20524;-86
2022/03/19 08:45:06;;;;;;;0.68;0.68;;;;;;;;;;4985483;28;20327;-88
2022/03/19 08:47:32;;;;;;;0.75;0.63;;;;;;;;;;4984396;28;20034;-87
2022/03/19 08:49:59;;;;;;;0.20;0.20;;;;;;;;;;4978959;28;20081;-83
2022/03/19 08:52:26;;;;;;;0.30;0.30;;;;;;;;;;4974299;28;20050;-87
2022/03/19 08:54:52;;;;;;;0.20;0.20;;;;;;;;;;4973086;28;20114;-87
2022/03/19 08:57:20;;;;;;;0.55;0.38;;;;;;;;;;4969444;28;20547;-90
2022/03/19 08:59:46;;;;;;;0.88;0.82;;;;;;;;;;4970197;28;20599;-85
2022/03/19 09:02:12;;;;;;;2.13;1.20;;;;;;;;;;4973265;28;20045;-84
2022/03/19 09:04:38;;;;;;;1.33;1.23;;;;;;;;;;4970626;28;20038;-84
2022/03/19 09:07:04;;;;;;;0.98;0.98;;;;;;;;;;4978255;28;20090;-83
2022/03/19 09:09:30;;;;;;;4.18;0.65;;;;;;;;;;4970958;28;20521;-83
2022/03/19 09:11:56;;;;;;;0.75;0.75;;;;;;;;;;4975334;28;20565;-84
2022/03/19 09:14:24;;;;;;;4.07;1.40;;;;;;;;;;4973768;28;20041;-83
2022/03/19 09:16:50;;;;;;;1.08;1.02;;;;;;;;;;4972422;28;20038;-86
2022/03/19 09:19:16;;;;;;;1.05;1.02;;;;;;;;;;4972690;28;20015;-84
2022/03/19 09:21:42;;;;;;;3.38;0.85;;;;;;;;;;4982146;28;20053;-80
2022/03/19 09:24:10;;;;;;;1.08;0.88;;;;;;;;;;4982982;28;20058;-81
2022/03/19 09:26:36;;;;;;;1.67;1.02;;;;;;;;;;4985699;28;20073;-81
2022/03/19 09:29:02;;;;;;;1.33;1.20;;;;;;;;;;4983012;28;20034;-82
2022/03/19 09:31:28;;;;;;;0.40;0.40;;;;;;;;;;4982618;28;20041;-82
2022/03/19 09:33:54;;;;;;;0.73;0.73;;;;;;;;;;4982816;28;20034;-81
2022/03/19 09:36:20;;;;;;;0.65;0.65;;;;;;;;;;4978200;28;20022;-81
2022/03/19 09:38:46;;;;;;;0.47;0.47;;;;;;;;;;4984355;28;20039;-87
2022/03/19 09:41:12;;;;;;;1.42;0.65;;;;;;;;;;4973824;28;20042;-85
2022/03/19 09:43:38;;;;;;;0.55;0.47;;;;;;;;;;4974286;28;20108;-86
2022/03/19 09:46:05;;;;;;;2.08;0.68;;;;;;;;;;4972704;28;20034;-88
2022/03/19 09:48:31;;;;;;;1.50;0.60;;;;;;;;;;4973658;28;20054;-87
2022/03/19 09:50:58;;;;;;;0.63;0.63;;;;;;;;;;4971086;28;20026;-84
2022/03/19 09:53:26;;;;;;;0.75;0.75;;;;;;;;;;4973000;28;20030;-84
2022/03/19 09:55:58;;;;;;;0.47;0.47;;;;;;;;;;4976019;28;20493;-84
2022/03/19 09:58:24;;;;;;;0.45;0.45;;;;;;;;;;4971565;28;20035;-86
2022/03/19 10:00:50;;;;;;;0.77;0.77;;;;;;;;;;4971617;28;20089;-85
2022/03/19 10:03:22;;;;;;;0.10;0.10;;;;;;;;;;4975213;28;20042;-82
2022/03/19 10:08:36;;;;;;;1.48;1.23;;;;;;;;;;4981114;28;20053;-78
2022/03/19 10:11:05;;;;;;;0.63;0.35;;;;;;;;;;4975522;28;20113;-82
2022/03/19 10:13:31;;;;;;;0.30;0.30;;;;;;;;;;4974534;28;20073;-83
2022/03/19 10:15:58;;;;;;;0.43;0.43;;;;;;;;;;4977679;28;20041;-79
2022/03/19 10:18:28;;;;;;;2.75;0.88;;;;;;;;;;4977516;28;20034;-80
2022/03/19 10:20:54;;;;;;;0.98;0.90;;;;;;;;;;4974240;28;20026;-80
2022/03/19 10:23:34;;;;;;;1.52;1.02;;;;;;;;;;4977659;28;20046;-80
2022/03/19 10:26:00;;;;;;;1.65;1.10;;;;;;;;;;4974203;28;20473;-80
2022/03/19 10:28:30;;;;;;;0.38;0.38;;;;;;;;;;4976249;28;20035;-80
2022/03/19 10:30:56;;;;;;;2.05;0.57;;;;;;;;;;4971349;28;20038;-80
2022/03/19 10:33:25;;;;;;;0.45;0.35;;;;;;;;;;4981427;28;20035;-81
2022/03/19 10:35:51;;;;;;;0.20;0.20;;;;;;;;;;4980782;28;20051;-81
2022/03/19 10:38:22;;;;;;;1.15;1.08;;;;;;;;;;4981997;28;20637;-81
2022/03/19 10:40:51;;;;;;;26.20;1.10;;;;;;;;;;4972778;28;20510;-80
2022/03/19 10:43:17;;;;;;;0.30;0.30;;;;;;;;;;4978538;28;20065;-81
2022/03/19 10:45:44;;;;;;;0.88;0.55;;;;;;;;;;4982950;28;20516;-82
2022/03/19 10:48:13;;;;;;;0.45;0.45;;;;;;;;;;4975632;28;20105;-82
2022/03/19 10:50:40;;;;;;;0.88;0.88;;;;;;;;;;4982078;28;20038;-81
2022/03/19 10:53:06;;;;;;;0.98;0.70;;;;;;;;;;4978436;28;20026;-80
2022/03/19 10:55:33;;;;;;;0.68;0.68;;;;;;;;;;4982024;28;20038;-81
2022/03/19 10:57:59;;;;;;;0.30;0.30;;;;;;;;;;4969995;28;20064;-81
2022/03/19 11:00:25;;;;;;;0.70;0.70;;;;;;;;;;4981259;28;20034;-81
2022/03/19 11:02:54;;;;;;;1.23;1.13;;;;;;;;;;4985870;28;20282;-79
2022/03/19 11:05:22;;;;;;;0.52;0.52;;;;;;;;;;4984606;28;20104;-79
2022/03/19 11:07:48;;;;;;;0.32;0.30;;;;;;;;;;4987158;28;20110;-87
2022/03/19 11:10:15;;;;;;;1.27;0.43;;;;;;;;;;4985860;28;20046;-82
2022/03/19 11:12:50;;;;;;;1.85;0.88;;;;;;;;;;4983415;28;20038;-84
2022/03/19 11:15:17;;;;;;;1.45;1.23;;;;;;;;;;4984936;28;20019;-85
2022/03/19 11:17:45;;;;;;;2.45;1.13;;;;;;;;;;4986880;28;20093;-85
2022/03/19 11:20:12;;;;;;;0.35;0.35;;;;;;;;;;4996580;28;20700;-85
2022/03/19 11:22:41;;;;;;;0.80;0.80;;;;;;;;;;4984898;28;20561;-86
2022/03/19 11:25:10;;;;;;;1.30;1.10;;;;;;;;;;4985626;28;20033;-86
2022/03/19 11:27:37;;;;;;;0.38;0.38;;;;;;;;;;4985560;28;20038;-85
2022/03/19 11:30:05;;;;;;;1.08;1.05;;;;;;;;;;4984825;28;20058;-86
2022/03/19 11:32:31;;;;;;;1.13;0.63;;;;;;;;;;4979802;28;20079;-85
2022/03/19 11:34:59;;;;;;;0.57;0.47;;;;;;;;;;4981615;28;20118;-90
2022/03/19 11:37:44;;;;;;;1.33;0.95;;;;;;;;;;4980931;28;20829;-88
2022/03/19 11:40:13;;;;;;;3.60;0.80;;;;;;;;;;4982433;28;20026;-90
2022/03/19 11:42:55;;;;;;;14.82;1.30;;;;;;;;;;4986627;28;20134;-90
2022/03/19 11:45:21;;;;;;;0.65;0.65;;;;;;;;;;4974628;28;20038;-90
2022/03/19 11:47:47;;;;;;;0.65;0.52;;;;;;;;;;4978361;28;20037;-90
2022/03/19 11:50:26;;;;;;;0.50;0.50;;;;;;;;;;4978742;28;20127;-89
2022/03/19 11:52:55;;;;;;;1.27;0.90;;;;;;;;;;4978320;28;20922;-89
2022/03/19 11:55:29;;;;;;;0.32;0.22;;;;;;;;;;4978102;28;20030;-85
2022/03/19 11:57:58;;;;;;;0.77;0.52;;;;;;;;;;4982525;28;20030;-88
2022/03/19 12:00:25;;;;;;;0.80;0.80;;;;;;;;;;4976542;28;20085;-88
2022/03/19 12:03:10;;;;;;;1.38;1.02;;;;;;;;;;4973442;28;20030;-88
2022/03/19 12:05:38;;;;;;;1.97;1.20;;;;;;;;;;4972672;28;20038;-90
2022/03/19 12:08:09;;;;;;;0.17;0.17;;;;;;;;;;4980210;28;20212;-91
2022/03/19 12:10:40;;;;;;;6.32;1.70;;;;;;;;;;4983687;28;20073;-85
2022/03/19 12:13:42;;;;;;;3.40;2.28;;;;;;;;;;4979322;28;20042;-85
2022/03/19 12:16:08;;;;;;;0.43;0.43;;;;;;;;;;4960379;28;20038;-87
2022/03/19 12:18:42;;;;;;;0.40;0.40;;;;;;;;;;4962474;28;20043;-84
2022/03/19 12:21:10;;;;;;;2.65;2.33;;;;;;;;;;4960329;28;20055;-86
2022/03/19 12:23:40;;;;;;;0.70;0.65;;;;;;;;;;4950593;28;20771;-84
2022/03/19 12:26:08;;;;;;;0.47;0.47;;;;;;;;;;4950024;28;20782;-84
2022/03/19 12:28:35;;;;;;;0.30;0.30;;;;;;;;;;4950098;28;20957;-85
2022/03/19 12:31:04;;;;;;;1.80;1.10;;;;;;;;;;4949646;28;20039;-83
2022/03/19 12:33:32;;;;;;;0.95;0.52;;;;;;;;;;4945442;28;20031;-84
2022/03/19 12:35:58;;;;;;;2.10;1.52;;;;;;;;;;4946877;28;20042;-84
2022/03/19 12:38:25;;;;;;;13.10;1.90;;;;;;;;;;4952945;28;20560;-84
2022/03/19 12:43:38;;;;;;;0.70;0.57;;;;;;;;;;4951131;28;20040;-82
2022/03/19 12:46:05;;;;;;;0.43;0.43;;;;;;;;;;4938682;28;20460;-82
2022/03/19 12:48:31;;;;;;;12.13;1.38;;;;;;;;;;4955332;28;20042;-82
2022/03/19 12:50:57;;;;;;;0.95;0.52;;;;;;;;;;4972205;28;20053;-82
2022/03/19 12:53:35;;;;;;;3.63;0.40;;;;;;;;;;4973808;28;20035;-83
2022/03/19 12:56:10;;;;;;;0.55;0.47;;;;;;;;;;4976701;28;20692;-82
2022/03/19 12:58:41;;;;;;;2.92;0.77;;;;;;;;;;4976217;28;20038;-82
2022/03/19 13:01:10;;;;;;;0.28;0.28;;;;;;;;;;4973624;28;20572;-82
2022/03/19 13:03:37;;;;;;;3.10;1.33;;;;;;;;;;4975075;28;20060;-82
2022/03/19 13:06:03;;;;;;;0.25;0.25;;;;;;;;;;4976102;28;20035;-82
2022/03/19 13:08:29;;;;;;;0.40;0.40;;;;;;;;;;4976783;28;20038;-77
2022/03/19 13:10:55;;;;;;;0.77;0.77;;;;;;;;;;4973086;28;20061;-78
2022/03/19 13:13:22;;;;;;;0.73;0.73;;;;;;;;;;4974705;28;20026;-78
2022/03/19 13:15:48;;;;;;;0.13;0.13;;;;;;;;;;4975612;28;20048;-78
2022/03/19 13:18:14;;;;;;;;;;;;;;;;;;4976193;28;20085;-77
2022/03/19 13:20:40;;;;;;;1.85;0.47;;;;;;;;;;4977047;28;19917;-77
2022/03/19 13:23:07;;;;;;;0.20;0.10;;;;;;;;;;4974150;28;20042;-77
2022/03/19 13:25:33;;;;;;;0.70;0.68;;;;;;;;;;4975823;28;20321;-77
2022/03/19 13:28:03;;;;;;;5.60;1.80;;;;;;;;;;4976070;28;20498;-78
2022/03/19 13:30:29;;;;;;;2.90;1.58;;;;;;;;;;4974601;28;20110;-77
2022/03/19 13:32:59;;;;;;;1.02;0.80;;;;;;;;;;4976617;28;20066;-77
2022/03/19 13:35:42;;;;;;;0.30;0.30;;;;;;;;;;4972197;28;20027;-76
2022/03/19 13:38:11;;;;;;;1.92;1.55;;;;;;;;;;4967762;28;20034;-79
2022/03/19 13:40:38;;;;;;;1.95;1.33;;;;;;;;;;4973828;28;20088;-79
2022/03/19 13:43:04;;;;;;;0.22;0.22;;;;;;;;;;4972080;28;20027;-79
2022/03/19 13:45:32;;;;;;;0.88;0.50;;;;;;;;;;4967625;28;20041;-78
2022/03/19 13:48:05;;;;;;;0.20;0.20;;;;;;;;;;4970074;28;20080;-80
2022/03/19 13:50:31;;;;;;;1.67;1.02;;;;;;;;;;4968989;28;20403;-79
2022/03/19 13:52:59;;;;;;;2.90;1.67;;;;;;;;;;4971808;28;20031;-82
2022/03/19 13:55:28;;;;;;;1.95;0.63;;;;;;;;;;4978617;28;20049;-78
2022/03/19 13:57:57;;;;;;;2.78;1.20;;;;;;;;;;4975816;28;20058;-79
2022/03/19 14:00:27;;;;;;;0.40;0.40;;;;;;;;;;4967478;28;20027;-78
2022/03/19 14:02:54;;;;;;;0.40;0.40;;;;;;;;;;4975482;28;20134;-78
2022/03/19 14:05:24;;;;;;;0.50;0.50;;;;;;;;;;4977520;28;20045;-77
2022/03/19 14:07:50;;;;;;;0.47;0.47;;;;;;;;;;4973402;28;20684;-78
2022/03/19 14:10:16;;;;;;;1.40;0.77;;;;;;;;;;4972378;28;20042;-80
2022/03/19 14:12:43;;;;;;;1.52;1.42;;;;;;;;;;4976160;28;20490;-80
2022/03/19 14:15:14;;;;;;;0.73;0.70;;;;;;;;;;4970828;28;20027;-80
2022/03/19 14:17:43;;;;;;;0.40;0.40;;;;;;;;;;4979796;28;20941;-80
2022/03/19 14:20:10;;;;;;;1.27;0.95;;;;;;;;;;4975925;28;20104;-81
2022/03/19 14:22:36;;;;;;;1.55;1.08;;;;;;;;;;4976320;28;20194;-80
2022/03/19 14:25:02;;;;;;;2.28;0.85;;;;;;;;;;4974686;28;20489;-78
2022/03/19 14:27:28;;;;;;;1.70;1.55;;;;;;;;;;4978365;28;20069;-78
2022/03/19 14:29:54;;;;;;;1.50;1.15;;;;;;;;;;4977498;28;20056;-78
2022/03/19 14:32:20;;;;;;;0.30;0.30;;;;;;;;;;4973803;28;20494;-77
2022/03/19 14:34:47;;;;;;;0.82;0.43;;;;;;;;;;4972967;28;20359;-77
2022/03/19 14:37:13;;;;;;;0.40;0.40;;;;;;;;;;4977333;28;20847;-76
2022/03/19 14:39:39;;;;;;;0.90;0.53;;;;;;;;;;4981949;28;20038;-77
2022/03/19 14:42:05;;;;;;;0.88;0.88;;;;;;;;;;4973084;28;20113;-77
2022/03/19 14:44:31;;;;;;;4.22;2.17;;;;;;;;;;4975444;28;20038;-78
2022/03/19 14:46:57;;;;;;;0.88;0.77;;;;;;;;;;4973597;28;20050;-78
2022/03/19 14:49:23;;;;;;;2.50;0.97;;;;;;;;;;4974576;28;20112;-78
2022/03/19 14:51:49;;;;;;;0.85;0.45;;;;;;;;;;4972716;28;20296;-78
2022/03/19 14:54:15;;;;;;;1.08;0.80;;;;;;;;;;4974534;28;20031;-78
2022/03/19 14:56:43;;;;;;;1.08;0.98;;;;;;;;;;4974972;28;20380;-78
2022/03/19 14:59:10;;;;;;;2.17;1.05;;;;;;;;;;4971202;28;20660;-78
2022/03/19 15:01:36;;;;;;;;;;;;;;;;;;4972948;28;20046;-77